Barnstable Municipal Boardman Polando Field
KHYA : rendu visible

Aérodrome :











RETROUVEZ-NOUS SUR...

 
LOGIN :

S'inscrire | Disclaimer

   EN    FR    IT 

 









Légende :    VFR   VFR Marginal   IFR   IFR Intensif   IFR Très Intensif
Visi : 
Plafond : 
>= 8 km
>= 3000ft
5 à 8 km
1000 à 3000 ft
1500m à 5 km
500 à 1000 ft
800 à 1500m
200 à 500 ft
< 800m
< 200 ft
Symboles :   Orages  Brouillard  Fortes neiges  Fortes précipitations  Vent > 20 kt






- Altitude de l'aérodrome : 54 ft
- Code IATA : HYA


KHYA - Barnstable Municipal Boardman Polando Field

DERNIER METAR :
  • 180839Z AUTO 28006KT 10SM BKN021 M09/M17 A3055 RMK AO2 T10941167

METARs EXPIRÉS :
  • 180756Z AUTO 28004KT 10SM SCT022 M09/M15 A3055 RMK AO2 SLP348 T10891150
  • 180656Z AUTO 27005KT 10SM FEW024 M09/M16 A3055 RMK AO2 SLP348 T10891161

TAF KHYA
Valide du 18 à 06h jusqu'au 19 à 06h UTC


180530Z 1806/1906 32008KT P6SM SKC
FM182000 20006KT P6SM VCSH OVC040
FM182200 17008KT 2SM -SN BR OVC020
FM190000 17010KT 1/4SM +SN FZFG OVC005
FM190200 17013G20KT 1/2SM SN FZFG OVC008
FM190300 17014G22KT 5SM -RASN OVC003
FM190500 18013KT 5SM -RA BR OVC003



MET'MAP, la Météo Aéronautique d'un coup d'oeil ! - Copyright ORBIFLY Décembre 2007 - Disclaimer

ORBIFLY MET'MAP TEAM :

Programmation & Développement : Alexandra Zaïnal
Sur une idée originale de : Baudouin d'Aumeries
Assistance à la programmation : Marc-Olivier Méhu
Soutien technique & logistique : Manuel Goepfert

Contact : metmap@orbifly.com




SOURCES & CREDITS :

   NOAA       Earth
Advisory